Time;durP1;ratioP1;P1;durP2;ratioP2;P2;SDS_P1;SDS_P2;PMS_P1;PMS_P2;Temp;Humidity;BMP_temperature;BMP_pressure;BME280_temperature;BME280_humidity;BME280_pressure;Samples;Min_cycle;Max_cycle;Signal;HPM_P1;HPM_P2
2024/01/09 00:02:06;;;;;;;;;34.25;23.50;;;;;-14.96;73.11;102613.18;113528;244;39790;-50
2024/01/09 00:04:47;;;;;;;;;37.00;26.33;;;;;-14.96;73.20;102607.48;113492;243;39954;-50
2024/01/09 00:07:26;;;;;;;;;39.00;27.67;;;;;-15.00;73.21;102601.71;113615;244;39341;-49
2024/01/09 00:10:03;;;;;;;;;39.00;29.00;;;;;-15.04;73.22;102595.95;113460;244;39725;-50
2024/01/09 00:12:40;;;;;;;;;31.50;19.25;;;;;-15.08;73.25;102596.05;113300;244;39377;-54
2024/01/09 00:15:15;;;;;;;;;44.50;28.00;;;;;-15.12;73.35;102591.34;113520;244;39652;-53
2024/01/09 00:17:49;;;;;;;;;31.00;22.00;;;;;-15.12;73.49;102591.52;112108;244;633772;-52
2024/01/09 00:20:23;;;;;;;;;31.50;23.00;;;;;-15.13;73.51;102592.34;112507;244;43008;-53
2024/01/09 00:23:00;;;;;;;;;25.67;19.00;;;;;-15.14;73.60;102586.64;113438;244;39035;-54
2024/01/09 00:25:36;;;;;;;;;28.50;21.75;;;;;-15.14;73.67;102593.02;112591;244;39265;-55
2024/01/09 00:28:13;;;;;;;;;23.75;17.75;;;;;-15.14;73.68;102592.00;113531;244;39701;-55
2024/01/09 00:30:54;;;;;;;;;23.00;18.00;;;;;-15.14;73.81;102590.78;113379;244;40952;-54
2024/01/09 00:33:30;;;;;;;;;23.50;17.00;;;;;-15.12;73.80;102587.36;113405;244;40244;-53
2024/01/09 00:36:09;;;;;;;;;26.50;19.50;;;;;-15.14;73.81;102586.11;113417;243;39122;-54
2024/01/09 00:38:47;;;;;;;;;26.50;18.00;;;;;-15.13;73.81;102585.45;113413;244;39862;-54
2024/01/09 00:41:25;;;;;;;;;24.00;17.00;;;;;-15.14;73.85;102583.88;113566;244;39789;-49
2024/01/09 00:44:04;;;;;;;;;21.00;14.33;;;;;-15.13;73.96;102580.95;113528;243;40318;-49
2024/01/09 00:46:42;;;;;;;;;25.50;18.50;;;;;-15.08;74.00;102581.71;113414;243;39413;-49
2024/01/09 00:49:22;;;;;;;;;32.00;25.00;;;;;-15.07;73.95;102579.50;113305;243;39561;-49
2024/01/09 00:52:02;;;;;;;;;24.00;17.00;;;;;-15.05;73.93;102574.69;113554;243;39119;-49
2024/01/09 00:54:41;;;;;;;;;26.75;19.00;;;;;-15.14;73.95;102581.27;113492;244;39754;-49
2024/01/09 00:57:15;;;;;;;;;22.00;16.00;;;;;-15.17;73.92;102586.08;112547;244;40312;-49
2024/01/09 00:59:51;;;;;;;;;27.75;19.25;;;;;-15.12;74.06;102588.04;113527;243;39628;-49
2024/01/09 01:02:29;;;;;;;;;27.25;20.00;;;;;-15.08;73.91;102587.77;113348;243;41987;-55
2024/01/09 01:05:09;;;;;;;;;24.00;18.67;;;;;-15.07;73.99;102587.95;113336;244;40954;-54
2024/01/09 01:07:46;;;;;;;;;27.75;19.00;;;;;-15.09;73.95;102589.48;113277;244;39261;-54
2024/01/09 01:10:22;;;;;;;;;29.00;20.75;;;;;-15.07;74.00;102584.51;112451;244;39662;-54
2024/01/09 01:12:56;;;;;;;;;17.00;13.25;;;;;-15.09;73.89;102586.70;112415;244;39374;-54
2024/01/09 01:15:33;;;;;;;;;22.00;17.00;;;;;-15.11;73.96;102587.73;112418;244;39022;-48
2024/01/09 01:18:08;;;;;;;;;19.33;15.00;;;;;-15.07;74.10;102584.84;112415;244;40243;-48
2024/01/09 01:20:48;;;;;;;;;24.50;17.75;;;;;-15.08;74.14;102587.95;112420;244;40377;-54
2024/01/09 01:23:24;;;;;;;;;23.75;17.00;;;;;-15.10;74.11;102588.25;112444;244;40932;-53
2024/01/09 01:26:02;;;;;;;;;28.00;20.00;;;;;-15.09;74.11;102595.35;112417;244;39717;-51
2024/01/09 01:28:40;;;;;;;;;29.50;22.50;;;;;-15.04;74.00;102596.30;112421;244;39619;-50
2024/01/09 01:31:16;;;;;;;;;27.75;22.00;;;;;-15.07;74.00;102595.56;112384;244;40887;-54
2024/01/09 01:33:56;;;;;;;;;30.00;21.00;;;;;-15.09;73.91;102600.37;112468;244;41174;-54
2024/01/09 01:36:32;;;;;;;;;24.75;18.25;;;;;-15.24;73.95;102599.94;112430;244;39370;-48
2024/01/09 01:39:14;;;;;;;;;32.00;24.00;;;;;-15.29;74.09;102600.89;112425;244;40772;-48
2024/01/09 01:41:51;;;;;;;;;28.50;21.00;;;;;-15.29;74.21;102598.14;112429;244;39007;-48
2024/01/09 01:44:28;;;;;;;;;26.00;21.00;;;;;-15.23;73.99;102598.41;112430;244;39633;-49
2024/01/09 01:47:08;;;;;;;;;26.25;19.75;;;;;-15.18;74.10;102602.30;112446;244;40277;-49
2024/01/09 01:49:46;;;;;;;;;28.00;22.00;;;;;-15.24;74.11;102602.88;112417;244;41013;-48
2024/01/09 01:52:25;;;;;;;;;34.50;21.50;;;;;-15.30;74.18;102599.84;112446;244;41204;-49
2024/01/09 01:55:04;;;;;;;;;24.00;19.00;;;;;-15.32;74.24;102604.48;112430;244;39904;-49
2024/01/09 01:57:42;;;;;;;;;32.00;24.00;;;;;-15.28;74.19;102606.63;112422;244;38877;-54
2024/01/09 02:00:19;;;;;;;;;30.75;23.00;;;;;-15.24;74.18;102606.50;112433;244;41050;-54
2024/01/09 02:02:55;;;;;;;;;29.50;23.00;;;;;-15.16;74.24;102609.58;112409;244;39575;-55
2024/01/09 02:05:31;;;;;;;;;35.00;24.50;;;;;-15.18;74.25;102607.29;112435;244;39268;-55
2024/01/09 02:08:10;;;;;;;;;30.75;24.00;;;;;-15.17;74.26;102612.84;112452;244;40594;-55
2024/01/09 02:10:45;;;;;;;;;37.00;25.00;;;;;-15.17;74.24;102610.95;112466;244;39588;-50
2024/01/09 02:13:24;;;;;;;;;34.25;25.00;;;;;-15.15;74.25;102613.23;112436;244;39565;-50
2024/01/09 02:16:06;;;;;;;;;32.50;23.00;;;;;-15.16;74.19;102615.28;112491;244;39341;-50
2024/01/09 02:18:43;;;;;;;;;36.00;23.00;;;;;-15.19;74.05;102617.48;112450;244;39719;-50
2024/01/09 02:21:20;;;;;;;;;28.67;20.67;;;;;-15.19;74.12;102616.62;112445;244;40303;-55
2024/01/09 02:23:58;;;;;;;;;37.33;26.00;;;;;-15.18;73.97;102617.83;112491;244;40507;-55
2024/01/09 02:26:45;;;;;;;;;33.00;24.00;;;;;-15.15;73.93;102616.16;112449;244;40364;-55
2024/01/09 02:29:33;;;;;;;;;34.50;24.75;;;;;-15.10;74.02;102619.19;112482;244;40539;-55
2024/01/09 02:32:09;;;;;;;;;34.00;25.33;;;;;-15.10;73.99;102616.77;112473;244;39856;-55
2024/01/09 02:34:49;;;;;;;;;36.00;25.50;;;;;-15.14;74.00;102615.30;112486;244;40978;-55
2024/01/09 02:37:31;;;;;;;;;39.75;27.00;;;;;-15.16;74.02;102616.14;112498;244;40245;-55
2024/01/09 02:40:11;;;;;;;;;30.00;22.50;;;;;-15.23;74.06;102616.90;112471;244;40724;-54
2024/01/09 02:42:45;;;;;;;;;33.33;23.00;;;;;-15.32;74.15;102623.81;112501;244;41132;-55
2024/01/09 02:45:21;;;;;;;;;28.67;21.67;;;;;-15.33;74.10;102624.14;112467;244;39975;-54
2024/01/09 02:48:00;;;;;;;;;36.50;27.50;;;;;-15.35;74.14;102623.74;112475;244;39251;-53
2024/01/09 02:50:34;;;;;;;;;39.00;27.00;;;;;-15.43;74.18;102621.89;112457;244;39252;-53
2024/01/09 02:53:09;;;;;;;;;36.00;27.00;;;;;-15.43;74.24;102619.48;112471;244;39932;-54
2024/01/09 02:55:49;;;;;;;;;32.00;24.00;;;;;-15.41;74.29;102620.04;112502;244;41369;-50
2024/01/09 02:58:27;;;;;;;;;27.00;19.67;;;;;-15.38;74.52;102618.52;112462;244;39371;-50
2024/01/09 03:01:07;;;;;;;;;33.00;24.00;;;;;-15.37;74.48;102613.36;112438;244;40499;-54
2024/01/09 03:03:46;;;;;;;;;34.75;25.25;;;;;-15.36;74.47;102616.83;112474;244;39025;-55
2024/01/09 03:06:22;;;;;;;;;31.50;22.50;;;;;-15.32;74.41;102612.94;112521;244;39173;-49
2024/01/09 03:09:00;;;;;;;;;39.50;28.00;;;;;-15.27;74.48;102611.64;112481;244;40055;-49
2024/01/09 03:11:37;;;;;;;;;40.25;29.00;;;;;-15.26;74.59;102611.98;112507;244;39608;-50
2024/01/09 03:14:15;;;;;;;;;34.25;25.50;;;;;-15.24;74.63;102614.11;112436;244;40123;-50
2024/01/09 03:16:53;;;;;;;;;37.50;25.00;;;;;-15.16;74.69;102616.48;112483;244;39654;-53
2024/01/09 03:19:29;;;;;;;;;34.00;25.25;;;;;-15.13;74.58;102614.48;112447;244;40851;-53
2024/01/09 03:22:03;;;;;;;;;34.25;25.00;;;;;-15.16;74.56;102617.36;112455;244;39935;-49
2024/01/09 03:24:40;;;;;;;;;36.00;23.00;;;;;-15.15;74.54;102619.79;112421;244;40024;-50
2024/01/09 03:27:19;;;;;;;;;43.25;31.50;;;;;-15.13;74.51;102622.77;112478;244;40031;-49
2024/01/09 03:29:56;;;;;;;;;31.00;25.00;;;;;-15.16;74.39;102623.73;112504;244;39799;-48
2024/01/09 03:32:37;;;;;;;;;37.00;28.00;;;;;-15.25;74.45;102625.84;112436;244;39478;-53
2024/01/09 03:35:16;;;;;;;;;31.50;22.25;;;;;-15.29;74.37;102620.06;112372;244;43389;-53
2024/01/09 03:37:50;;;;;;;;;23.75;19.25;;;;;-15.27;74.46;102619.58;112376;244;42650;-55
2024/01/09 03:40:26;;;;;;;;;41.00;27.00;;;;;-15.28;74.41;102619.91;112401;244;39410;-54
2024/01/09 03:43:06;;;;;;;;;36.75;25.50;;;;;-15.36;74.25;102620.62;112427;244;39557;-55
2024/01/09 03:45:47;;;;;;;;;35.00;25.00;;;;;-15.43;74.52;102613.77;112407;244;40665;-53
2024/01/09 03:48:24;;;;;;;;;30.50;21.50;;;;;-15.41;74.70;102615.88;112400;244;39316;-53
2024/01/09 03:51:01;;;;;;;;;32.25;24.00;;;;;-15.43;74.77;102616.90;112398;244;39074;-50
2024/01/09 03:53:36;;;;;;;;;33.00;22.67;;;;;-15.46;74.88;102616.16;112384;244;39649;-50
2024/01/09 03:56:10;;;;;;;;;27.00;20.75;;;;;-15.47;74.98;102614.77;112414;244;40144;-49
2024/01/09 03:58:45;;;;;;;;;37.00;27.00;;;;;-15.48;75.03;102615.09;112368;244;40269;-50
2024/01/09 04:01:21;;;;;;;;;32.67;24.00;;;;;-15.44;75.10;102621.00;112352;244;39697;-54
2024/01/09 04:03:59;;;;;;;;;25.25;19.25;;;;;-15.40;75.15;102620.05;112419;244;39908;-53
2024/01/09 04:06:43;;;;;;;;;27.25;21.75;;;;;-15.41;75.09;102617.10;112446;244;39414;-48
2024/01/09 04:09:20;;;;;;;;;24.75;18.50;;;;;-15.39;75.22;102617.30;112384;244;39592;-49
2024/01/09 04:12:00;;;;;;;;;28.25;19.00;;;;;-15.33;75.28;102616.20;112430;244;40725;-48
2024/01/09 04:14:36;;;;;;;;;29.50;21.50;;;;;-15.28;75.25;102617.84;112417;244;39287;-49
2024/01/09 04:17:13;;;;;;;;;28.00;22.00;;;;;-15.26;75.16;102615.27;112394;244;39722;-53
2024/01/09 04:19:49;;;;;;;;;26.00;20.00;;;;;-15.30;75.11;102614.87;112409;244;39768;-54
2024/01/09 04:22:26;;;;;;;;;30.00;22.00;;;;;-15.32;75.25;102612.07;112469;244;39450;-49
2024/01/09 04:25:09;;;;;;;;;29.75;20.75;;;;;-15.40;75.20;102613.31;112408;244;39288;-53
2024/01/09 04:27:48;;;;;;;;;21.50;16.00;;;;;-15.44;75.27;102616.17;112380;244;41760;-53
2024/01/09 04:30:27;;;;;;;;;24.25;16.75;;;;;-15.43;75.29;102612.05;112411;244;39317;-53
2024/01/09 04:33:04;;;;;;;;;22.50;16.75;;;;;-15.48;75.37;102610.79;112401;244;39562;-52
2024/01/09 04:35:42;;;;;;;;;24.00;19.00;;;;;-15.46;75.49;102609.95;112432;244;39823;-53
2024/01/09 04:38:19;;;;;;;;;24.75;18.00;;;;;-15.42;75.64;102605.16;112382;244;40353;-54
2024/01/09 04:40:55;;;;;;;;;24.00;18.00;;;;;-15.40;75.48;102604.67;112370;245;40926;-56
2024/01/09 04:43:32;;;;;;;;;27.00;18.75;;;;;-15.44;75.57;102608.23;112401;244;39498;-55
2024/01/09 04:46:13;;;;;;;;;22.25;17.00;;;;;-15.45;75.61;102605.12;112443;244;39544;-48
2024/01/09 04:48:49;;;;;;;;;23.00;17.00;;;;;-15.41;75.76;102603.78;112438;244;40046;-48
2024/01/09 04:51:28;;;;;;;;;21.50;17.00;;;;;-15.32;75.61;102604.12;112427;244;39367;-49
2024/01/09 04:54:03;;;;;;;;;24.00;15.50;;;;;-15.32;75.52;102604.46;112346;244;42912;-48
2024/01/09 04:56:43;;;;;;;;;26.00;19.00;;;;;-15.35;75.57;102604.75;112480;244;40242;-48
2024/01/09 04:59:23;;;;;;;;;21.50;16.75;;;;;-15.39;75.52;102607.27;112391;244;40920;-49
2024/01/09 05:02:01;;;;;;;;;29.00;18.00;;;;;-15.44;75.52;102604.45;112430;244;39366;-49
2024/01/09 05:04:46;;;;;;;;;24.00;16.00;;;;;-15.47;75.55;102608.90;112379;244;40570;-49
2024/01/09 05:07:20;;;;;;;;;24.00;17.00;;;;;-15.47;75.66;102611.33;112465;244;39231;-54
2024/01/09 05:09:59;;;;;;;;;19.00;15.00;;;;;-15.47;75.82;102609.41;112459;244;39162;-54
2024/01/09 05:12:34;;;;;;;;;24.50;17.00;;;;;-15.53;75.71;102606.39;112399;244;39931;-53
2024/01/09 05:15:11;;;;;;;;;23.00;17.00;;;;;-15.55;75.88;102607.38;112452;244;39988;-50
2024/01/09 05:17:50;;;;;;;;;23.25;16.25;;;;;-15.54;75.96;102604.29;112439;244;39518;-49
2024/01/09 05:20:26;;;;;;;;;27.75;19.00;;;;;-15.50;76.08;102607.30;112411;244;39481;-55
2024/01/09 05:23:02;;;;;;;;;24.50;16.75;;;;;-15.46;76.06;102611.16;112405;244;40774;-55
2024/01/09 05:25:40;;;;;;;;;16.00;12.00;;;;;-15.49;76.01;102617.52;112386;245;39593;-49
2024/01/09 05:28:16;;;;;;;;;24.25;18.00;;;;;-15.45;75.89;102618.41;112383;244;39341;-48
2024/01/09 05:30:51;;;;;;;;;21.25;16.25;;;;;-15.44;75.82;102619.27;112377;244;39163;-53
2024/01/09 05:33:32;;;;;;;;;22.00;17.75;;;;;-15.42;75.88;102618.97;112394;244;39569;-53
2024/01/09 05:36:11;;;;;;;;;21.50;18.00;;;;;-15.41;76.08;102626.25;112399;244;40350;-51
2024/01/09 05:38:47;;;;;;;;;23.00;17.50;;;;;-15.37;75.98;102619.06;112436;244;40116;-50
2024/01/09 05:41:30;;;;;;;;;21.75;15.50;;;;;-15.38;75.75;102618.53;112418;244;39998;-48
2024/01/09 05:44:07;;;;;;;;;21.00;14.50;;;;;-15.39;75.78;102612.27;112391;244;39087;-48
2024/01/09 05:46:45;;;;;;;;;20.00;15.25;;;;;-15.36;75.68;102613.89;112438;244;39795;-49
2024/01/09 05:49:25;;;;;;;;;22.33;17.00;;;;;-15.34;75.78;102613.41;112436;244;40379;-50
2024/01/09 05:52:04;;;;;;;;;23.00;17.00;;;;;-15.37;76.00;102614.92;112436;244;39663;-49
2024/01/09 05:54:45;;;;;;;;;23.50;19.00;;;;;-15.38;76.03;102615.58;112421;244;40487;-48
2024/01/09 05:57:23;;;;;;;;;20.00;15.00;;;;;-15.41;76.11;102620.04;112424;244;41646;-49
2024/01/09 06:00:00;;;;;;;;;17.25;13.00;;;;;-15.39;76.11;102617.48;112436;244;40151;-51
2024/01/09 06:02:36;;;;;;;;;27.67;18.67;;;;;-15.41;75.97;102617.25;112452;244;40670;-50
2024/01/09 06:05:12;;;;;;;;;19.00;14.00;;;;;-15.47;76.02;102625.66;112456;244;39479;-50
2024/01/09 06:07:47;;;;;;;;;25.00;20.50;;;;;-15.44;76.06;102628.95;112362;244;40537;-50
2024/01/09 06:10:25;;;;;;;;;22.00;17.00;;;;;-15.41;76.27;102632.29;112428;244;39366;-49
2024/01/09 06:13:03;;;;;;;;;20.75;15.00;;;;;-15.27;76.20;102635.29;112398;244;39272;-49
2024/01/09 06:15:41;;;;;;;;;24.75;19.00;;;;;-15.17;76.22;102638.58;112436;244;39978;-53
2024/01/09 06:18:20;;;;;;;;;20.00;15.00;;;;;-15.14;76.28;102637.27;112429;244;39703;-54
2024/01/09 06:20:59;;;;;;;;;28.00;19.00;;;;;-15.20;76.16;102641.98;112435;244;40794;-54
2024/01/09 06:23:42;;;;;;;;;31.00;21.25;;;;;-15.29;76.10;102646.33;112334;244;39584;-54
2024/01/09 06:26:18;;;;;;;;;19.33;14.33;;;;;-15.33;76.18;102654.20;112479;244;39788;-54
2024/01/09 06:28:56;;;;;;;;;24.75;16.00;;;;;-15.30;76.16;102656.51;112442;244;39462;-54
2024/01/09 06:31:34;;;;;;;;;32.75;22.50;;;;;-15.36;76.00;102656.73;112402;244;40310;-49
2024/01/09 06:34:09;;;;;;;;;22.75;19.00;;;;;-15.39;76.04;102657.73;112484;244;38947;-49
2024/01/09 06:36:46;;;;;;;;;23.00;16.00;;;;;-15.39;76.03;102655.98;112494;244;39226;-54
2024/01/09 06:39:26;;;;;;;;;23.00;16.33;;;;;-15.38;76.17;102654.09;112424;244;39858;-54
2024/01/09 06:42:02;;;;;;;;;25.00;18.00;;;;;-15.38;76.08;102655.84;112507;244;40570;-53
2024/01/09 06:44:41;;;;;;;;;19.25;15.00;;;;;-15.30;76.06;102650.10;112476;244;40361;-53
2024/01/09 06:47:23;;;;;;;;;26.33;18.00;;;;;-15.32;76.13;102646.27;112457;244;40632;-55
2024/01/09 06:49:59;;;;;;;;;32.75;24.00;;;;;-15.34;76.33;102650.89;112441;244;39308;-55
2024/01/09 06:52:41;;;;;;;;;30.00;20.00;;;;;-15.28;76.37;102652.20;112439;244;39870;-48
2024/01/09 06:55:14;;;;;;;;;25.00;19.00;;;;;-15.21;76.49;102650.60;112475;244;40201;-53
2024/01/09 06:57:56;;;;;;;;;30.75;20.75;;;;;-15.18;76.50;102649.29;112418;244;39674;-53
2024/01/09 07:00:33;;;;;;;;;27.00;20.00;;;;;-15.11;76.36;102654.08;112487;244;39479;-50
2024/01/09 07:03:11;;;;;;;;;25.00;17.00;;;;;-15.05;76.31;102658.67;112449;244;41456;-50
2024/01/09 07:05:46;;;;;;;;;21.00;15.00;;;;;-14.98;76.52;102665.70;112450;244;40542;-50
2024/01/09 07:08:27;;;;;;;;;20.00;16.00;;;;;-14.95;76.47;102668.84;112464;244;40240;-50
2024/01/09 07:11:02;;;;;;;;;23.50;18.00;;;;;-14.91;76.62;102672.02;112431;244;39062;-54
2024/01/09 07:13:37;;;;;;;;;22.00;16.75;;;;;-14.91;76.45;102676.20;112378;244;39661;-54
2024/01/09 07:16:12;;;;;;;;;21.00;16.33;;;;;-14.88;76.51;102673.63;112399;244;40445;-50
2024/01/09 07:18:49;;;;;;;;;19.25;13.75;;;;;-14.85;76.47;102672.31;112379;244;39877;-51
2024/01/09 07:21:25;;;;;;;;;25.25;19.00;;;;;-14.77;76.62;102676.41;112444;244;40676;-49
2024/01/09 07:24:07;;;;;;;;;20.33;16.00;;;;;-14.71;76.69;102677.20;112385;244;39076;-49
2024/01/09 07:26:53;;;;;;;;;22.00;18.00;;;;;-14.70;76.52;102676.70;112427;244;41279;-49
2024/01/09 07:29:29;;;;;;;;;25.00;17.00;;;;;-14.61;76.47;102673.55;112455;244;39858;-49
2024/01/09 07:32:04;;;;;;;;;31.00;22.00;;;;;-14.56;76.48;102673.27;112433;244;39230;-54
2024/01/09 07:34:42;;;;;;;;;21.75;15.75;;;;;-14.49;76.66;102676.16;112404;244;39294;-54
2024/01/09 07:37:21;;;;;;;;;22.75;16.50;;;;;-14.33;76.75;102682.79;112431;244;39172;-56
2024/01/09 07:40:01;;;;;;;;;25.25;17.25;;;;;-13.98;76.87;102688.44;112383;244;39745;-58
2024/01/09 07:42:37;;;;;;;;;32.25;20.25;;;;;-13.54;76.89;102685.36;112435;244;39175;-57
2024/01/09 07:45:12;;;;;;;;;31.25;21.50;;;;;-13.26;76.88;102679.59;112438;244;39646;-49
2024/01/09 07:47:55;;;;;;;;;32.00;23.00;;;;;-12.54;77.18;102678.45;112402;244;39826;-49
2024/01/09 07:50:31;;;;;;;;;29.00;21.00;;;;;-11.47;77.26;102679.87;112369;244;39311;-49
2024/01/09 07:53:06;;;;;;;;;31.00;23.00;;;;;-11.00;76.83;102676.16;112372;244;39298;-49
2024/01/09 07:55:41;;;;;;;;;32.00;24.00;;;;;-10.82;76.44;102675.98;112375;244;39234;-51
2024/01/09 07:58:21;;;;;;;;;36.25;26.00;;;;;-10.66;76.18;102681.20;112353;244;40579;-51
2024/01/09 08:00:56;;;;;;;;;35.50;25.50;;;;;-10.49;75.95;102678.24;112406;244;39620;-51
2024/01/09 08:03:33;;;;;;;;;41.67;30.67;;;;;-10.35;75.62;102680.66;112412;244;37891;-51
2024/01/09 08:06:09;;;;;;;;;50.25;34.25;;;;;-9.99;75.26;102684.39;112384;244;39280;-49
2024/01/09 08:08:47;;;;;;;;;44.25;33.00;;;;;-9.69;74.51;102683.77;112360;244;40486;-51
2024/01/09 08:11:22;;;;;;;;;45.75;34.00;;;;;-9.59;74.03;102684.61;112391;244;40250;-55
2024/01/09 08:14:00;;;;;;;;;52.00;36.00;;;;;-9.47;74.22;102689.60;112382;245;39157;-55
2024/01/09 08:16:37;;;;;;;;;48.25;33.25;;;;;-9.39;73.88;102689.05;111977;244;489510;-49
2024/01/09 08:19:12;;;;;;;;;50.00;33.00;;;;;-9.63;73.35;102686.18;112389;244;39518;-49
2024/01/09 08:21:50;;;;;;;;;45.50;33.00;;;;;-9.92;73.21;102682.46;112406;244;40500;-56
2024/01/09 08:24:27;;;;;;;;;44.00;30.00;;;;;-10.20;73.45;102688.83;112382;244;38868;-56
2024/01/09 08:27:08;;;;;;;;;45.00;33.00;;;;;-10.25;73.27;102687.63;112416;244;39575;-50
2024/01/09 08:29:47;;;;;;;;;43.50;30.75;;;;;-10.29;73.30;102686.39;112416;244;39832;-51
2024/01/09 08:32:25;;;;;;;;;37.50;27.00;;;;;-10.35;73.51;102690.25;112410;244;39735;-50
2024/01/09 08:35:09;;;;;;;;;40.75;29.00;;;;;-10.24;73.76;102691.10;112355;244;39891;-53
2024/01/09 08:37:43;;;;;;;;;37.25;28.25;;;;;-10.09;73.80;102690.35;112385;244;38996;-53
2024/01/09 08:40:18;;;;;;;;;44.00;30.00;;;;;-9.94;73.72;102691.70;112392;244;39028;-51
2024/01/09 08:42:52;;;;;;;;;44.25;31.75;;;;;-9.57;73.60;102690.52;112384;244;40467;-50
2024/01/09 08:45:31;;;;;;;;;46.00;35.50;;;;;-9.37;73.37;102691.13;112416;244;39181;-49
2024/01/09 08:48:08;;;;;;;;;43.25;31.75;;;;;-8.91;73.55;102686.64;112409;244;40682;-49
2024/01/09 08:50:44;;;;;;;;;55.33;37.33;;;;;-8.11;73.02;102682.79;112360;244;39613;-55
2024/01/09 08:53:20;;;;;;;;;47.50;33.00;;;;;-7.95;72.08;102684.18;112365;244;42078;-55
2024/01/09 08:55:58;;;;;;;;;43.50;32.00;;;;;-8.16;71.92;102682.14;112401;244;39561;-55
2024/01/09 08:58:33;;;;;;;;;37.25;28.25;;;;;-8.45;71.87;102688.75;112412;244;40781;-55
2024/01/09 09:01:09;;;;;;;;;44.50;31.50;;;;;-8.69;71.89;102692.95;112405;244;40093;-55
2024/01/09 09:03:44;;;;;;;;;41.50;30.00;;;;;-8.80;72.30;102697.40;112362;244;39582;-55
2024/01/09 09:06:23;;;;;;;;;43.75;31.00;;;;;-8.66;72.70;102690.83;112428;244;39264;-54
2024/01/09 09:08:57;;;;;;;;;45.75;32.00;;;;;-7.92;72.68;102681.52;112408;244;39730;-54
2024/01/09 09:11:37;;;;;;;;;38.00;30.00;;;;;-7.07;72.48;102678.86;112407;244;39810;-54
2024/01/09 09:14:16;;;;;;;;;51.33;35.00;;;;;-6.56;72.16;102679.30;112410;244;38919;-56
2024/01/09 09:16:51;;;;;;;;;46.75;33.25;;;;;-6.32;71.67;102682.40;112412;244;39766;-53
2024/01/09 09:19:31;;;;;;;;;45.00;35.00;;;;;-6.11;71.02;102678.33;112426;244;39703;-54
2024/01/09 09:22:11;;;;;;;;;43.25;32.50;;;;;-5.89;70.38;102676.31;112460;244;39357;-50
2024/01/09 09:24:49;;;;;;;;;43.25;31.75;;;;;-5.66;70.16;102673.22;112461;244;39690;-49
2024/01/09 09:27:30;;;;;;;;;46.33;32.67;;;;;-5.44;68.95;102668.55;112377;244;41817;-49
2024/01/09 09:30:12;;;;;;;;;45.50;33.00;;;;;-5.51;68.56;102671.50;112437;244;40417;-50
2024/01/09 09:32:47;;;;;;;;;48.00;35.00;;;;;-5.73;69.06;102676.16;112422;244;39672;-50
2024/01/09 09:35:26;;;;;;;;;49.00;34.75;;;;;-5.54;69.25;102674.70;112385;244;39452;-54
2024/01/09 09:38:01;;;;;;;;;50.67;36.67;;;;;-5.02;69.51;102673.23;112387;244;40520;-54
2024/01/09 09:40:36;;;;;;;;;50.50;34.50;;;;;-4.25;69.04;102671.84;112429;244;40376;-54
2024/01/09 09:43:18;;;;;;;;;53.50;37.50;;;;;-3.52;68.37;102671.08;112445;244;39496;-55
2024/01/09 09:45:57;;;;;;;;;54.00;37.00;;;;;-3.27;68.22;102668.02;112450;244;40723;-54
2024/01/09 09:48:32;;;;;;;;;54.25;37.25;;;;;-3.07;67.32;102666.52;112454;244;40077;-55
2024/01/09 09:51:08;;;;;;;;;48.50;36.00;;;;;-2.75;66.56;102658.13;112438;244;40216;-55
2024/01/09 09:53:47;;;;;;;;;56.50;43.00;;;;;-2.53;66.66;102661.27;112430;244;39944;-56
2024/01/09 09:56:25;;;;;;;;;54.67;38.00;;;;;-2.28;65.78;102661.31;112406;244;42905;-50
2024/01/09 09:59:05;;;;;;;;;51.33;37.00;;;;;-1.97;64.67;102655.76;112384;244;40511;-50
2024/01/09 10:01:44;;;;;;;;;52.00;38.00;;;;;-1.86;64.66;102654.34;112420;244;40088;-50
2024/01/09 10:04:40;;;;;;;;;54.00;41.00;;;;;-1.70;64.23;102653.23;112439;244;39570;-50
2024/01/09 10:07:23;;;;;;;;;51.50;37.50;;;;;-1.27;62.88;102648.05;112442;244;39178;-54
2024/01/09 10:10:03;;;;;;;;;50.25;36.00;;;;;-1.24;62.96;102648.98;112382;244;41359;-52
2024/01/09 10:12:42;;;;;;;;;54.00;41.00;;;;;-1.47;62.89;102647.40;112421;244;39737;-51
2024/01/09 10:15:26;;;;;;;;;53.50;37.50;;;;;-1.45;62.65;102643.81;112414;244;40923;-56
2024/01/09 10:18:03;;;;;;;;;58.00;41.00;;;;;-1.34;62.47;102640.20;112416;244;39549;-56
2024/01/09 10:20:40;;;;;;;;;57.00;42.00;;;;;-1.32;61.82;102641.37;112459;244;39633;-51
2024/01/09 10:23:15;;;;;;;;;54.50;39.75;;;;;-1.11;61.43;102640.52;112471;244;40955;-51
2024/01/09 10:25:52;;;;;;;;;54.00;39.00;;;;;-1.49;61.22;102640.78;112482;244;39567;-52
2024/01/09 10:28:26;;;;;;;;;50.00;37.00;;;;;-1.77;60.45;102643.96;112446;244;40065;-52
2024/01/09 10:31:08;;;;;;;;;49.00;33.25;;;;;-2.02;59.95;102640.60;112440;244;39090;-50
2024/01/09 10:33:46;;;;;;;;;53.25;37.50;;;;;-2.43;59.59;102640.46;112467;244;39798;-50
2024/01/09 10:36:23;;;;;;;;;54.00;36.00;;;;;-3.05;59.55;102639.52;112432;244;39967;-51
2024/01/09 10:39:06;;;;;;;;;44.75;31.25;;;;;-3.37;59.01;102638.40;112445;244;40690;-51
2024/01/09 10:41:43;;;;;;;;;41.50;30.25;;;;;-3.84;59.38;102641.19;112438;244;41049;-54
2024/01/09 10:44:20;;;;;;;;;38.00;27.00;;;;;-4.35;59.81;102634.84;112394;244;42240;-54
2024/01/09 10:47:01;;;;;;;;;40.00;29.00;;;;;-4.51;59.93;102634.38;112427;244;40013;-51
2024/01/09 10:49:36;;;;;;;;;39.00;28.00;;;;;-4.79;60.31;102630.35;112437;244;39290;-51
2024/01/09 10:52:13;;;;;;;;;35.00;24.25;;;;;-5.03;60.59;102626.02;112436;244;39445;-53
2024/01/09 10:54:50;;;;;;;;;34.75;26.00;;;;;-5.10;60.75;102621.60;112448;244;39109;-54
2024/01/09 10:57:26;;;;;;;;;47.00;30.75;;;;;-5.19;60.98;102626.55;112525;244;39208;-50
2024/01/09 11:00:08;;;;;;;;;37.00;25.00;;;;;-5.42;61.30;102623.20;112475;244;39115;-52
2024/01/09 11:02:47;;;;;;;;;36.75;26.00;;;;;-5.45;61.46;102620.98;112548;244;40225;-50
2024/01/09 11:05:27;;;;;;;;;28.00;19.00;;;;;-5.50;61.16;102614.96;112588;244;39739;-54
2024/01/09 11:08:06;;;;;;;;;30.33;22.00;;;;;-5.56;61.01;102614.55;112496;244;40358;-53
2024/01/09 11:10:46;;;;;;;;;39.00;28.75;;;;;-5.67;61.28;102610.23;112507;244;39565;-55
2024/01/09 11:13:24;;;;;;;;;33.33;22.00;;;;;-5.87;61.71;102613.48;112488;244;40495;-54
2024/01/09 11:16:05;;;;;;;;;27.25;20.00;;;;;-5.85;61.80;102616.23;112547;244;39877;-50
2024/01/09 11:18:45;;;;;;;;;38.50;26.50;;;;;-5.87;61.85;102621.39;112496;244;39218;-49
2024/01/09 11:21:32;;;;;;;;;28.67;22.33;;;;;-6.03;62.16;102623.11;112538;244;39563;-49
2024/01/09 11:24:12;;;;;;;;;30.00;24.00;;;;;-6.00;62.27;102620.43;112552;244;40664;-49
2024/01/09 11:27:08;;;;;;;;;31.25;22.25;;;;;-5.98;62.37;102614.42;112579;244;39490;-53
2024/01/09 11:30:05;;;;;;;;;23.33;17.67;;;;;-5.98;62.34;102610.38;112506;244;40090;-52
2024/01/09 11:32:47;;;;;;;;;28.33;19.00;;;;;-5.99;62.51;102603.40;112563;244;39853;-50
2024/01/09 11:35:27;;;;;;;;;14.25;11.25;;;;;-6.01;62.49;102602.71;112564;244;39335;-53
2024/01/09 11:38:02;;;;;;;;;27.00;20.00;;;;;-6.05;62.34;102597.90;112567;244;39791;-54
2024/01/09 11:40:45;;;;;;;;;30.00;22.00;;;;;-6.08;62.41;102592.88;112561;244;39574;-49
2024/01/09 11:43:23;;;;;;;;;18.50;11.75;;;;;-6.12;62.39;102596.98;112505;244;39715;-48
2024/01/09 11:46:00;;;;;;;;;26.25;20.50;;;;;-6.18;62.46;102589.73;112459;244;40765;-52
2024/01/09 11:48:37;;;;;;;;;27.75;20.25;;;;;-6.17;62.48;102591.30;112361;244;39009;-52
2024/01/09 11:51:14;;;;;;;;;34.33;25.00;;;;;-6.17;62.36;102593.92;112385;245;39355;-52
2024/01/09 11:53:52;;;;;;;;;26.67;19.33;;;;;-6.16;62.44;102597.41;112410;244;40870;-52